Terminal Aerodrome Forecast
Issued by NWS Missoula, MT

Home | Current Version | Previous Version | Text Only | Print | Product List | Glossary On
Versions: 1 2 3 4 5 6 7 8 9 10 11 12 13 14 15 16 17 18 19 20
000
FTUS45 KMSO 291122
TAFGPI
TAF
KGPI 291122Z 2912/3012 VRB04KT P6SM SCT120
     FM291500 18005KT P6SM BKN110
     FM291900 21012KT P6SM -SHRA BKN070
     FM292100 22012G21KT P6SM -SHRA VCTS BKN050CB
     FM292300 23008KT P6SM VCSH BKN060=

USA.gov is the U.S. government's official web portal to all federal, state and local government web resources and services.